Maran Canopus — SXUQ — position and weather

sailwx.info

Track history (hours):
 
Tides and Currents Weather Stations Pressure Air Temp Water Temp Dewpoint Dewpoint Depression Visibility Wind Speed Wind Dir Waves Ship Positions

Maran Canopus

Last reported at 2016-Aug-25 22:29 UTC. Time now 2016-Aug-29 19:53 UTC.
Position N 22°06' E 118°53'.

Length 333 m; draft 15 m.

Type: Tanker. MMSI: 240677000.

Date/timePositionNaut miles runAvg speedWind from/ knotsBaromVisibWave heightAir tempDewpointWater temp
2016-Aug-25 22:29N 22°06' E 118°53'1516.6
2016-Aug-25 21:33N 22°21' E 118°59'1716.1
2016-Aug-25 20:32N 22°36' E 119°06'1515.7
2016-Aug-25 19:33N 22°48' E 119°16'1515.6
2016-Aug-25 18:33N 23°00' E 119°26'1615.2
2016-Aug-25 17:30N 23°09' E 119°41'1713.5
2016-Aug-25 16:13N 23°25' E 119°49'913.9
2016-Aug-25 15:34N 23°34' E 119°49'3114.8
2016-Aug-25 13:29N 24°04' E 119°56'1414.0
2016-Aug-25 12:28N 24°17' E 120°03'1213.4
2016-Aug-25 11:32N 24°27' E 120°10'1413.2
2016-Aug-25 10:31N 24°39' E 120°19'1414.4
2016-Aug-25 09:33N 24°51' E 120°24'1312.9
2016-Aug-25 08:33N 25°01' E 120°33'28912.5
2016-Aug-24 09:26N 29°29' E 122°35'1111.6
2016-Aug-24 08:32N 29°40' E 122°34'7 7.3
2016-Aug-24 07:33N 29°42' E 122°26'7 7.5
2016-Aug-24 06:33N 29°45' E 122°19'19 9.5
2016-Aug-24 04:33N 29°56' E 122°01'1 0.0
2016-Aug-22 08:10N 29°56' E 121°60'0 0.2
2016-Aug-22 07:30N 29°56' E 121°60'3 3.6
2016-Aug-22 06:33N 29°55' E 122°03'8 8.1
2016-Aug-22 05:33N 29°52' E 122°12'1010.2
2016-Aug-22 04:33N 29°45' E 122°20'10 9.6
2016-Aug-22 03:33N 29°41' E 122°31'5 4.8
2016-Aug-22 02:34N 29°40' E 122°36'2 2.0
2016-Aug-22 01:32N 29°40' E 122°38'4 3.5
2016-Aug-22 00:28N 29°40' E 122°42'  
Track history (hours):
 
Tides and Currents Weather Stations Pressure Air Temp Water Temp Dewpoint Dewpoint Depression Visibility Wind Speed Wind Dir Waves Ship Positions

Maran Canopus

Last reported at 2016-Aug-25 22:29 UTC. Time now 2016-Aug-29 19:53 UTC.
Position N 22°06' E 118°53'.

Length 333 m; draft 15 m.

Type: Tanker. MMSI: 240677000.

Date/timePositionNaut miles runAvg speedWind from/ knotsBaromVisibWave heightAir tempDewpointWater temp
2016-Aug-25 22:29N 22°06' E 118°53'1516.6
2016-Aug-25 21:33N 22°21' E 118°59'1716.1
2016-Aug-25 20:32N 22°36' E 119°06'1515.7
2016-Aug-25 19:33N 22°48' E 119°16'1515.6
2016-Aug-25 18:33N 23°00' E 119°26'1615.2
2016-Aug-25 17:30N 23°09' E 119°41'1713.5
2016-Aug-25 16:13N 23°25' E 119°49'913.9
2016-Aug-25 15:34N 23°34' E 119°49'3114.8
2016-Aug-25 13:29N 24°04' E 119°56'1414.0
2016-Aug-25 12:28N 24°17' E 120°03'1213.4
2016-Aug-25 11:32N 24°27' E 120°10'1413.2
2016-Aug-25 10:31N 24°39' E 120°19'1414.4
2016-Aug-25 09:33N 24°51' E 120°24'1312.9
2016-Aug-25 08:33N 25°01' E 120°33'28912.5
2016-Aug-24 09:26N 29°29' E 122°35'1111.6
2016-Aug-24 08:32N 29°40' E 122°34'7 7.3
2016-Aug-24 07:33N 29°42' E 122°26'7 7.5
2016-Aug-24 06:33N 29°45' E 122°19'19 9.5
2016-Aug-24 04:33N 29°56' E 122°01'1 0.0
2016-Aug-22 08:10N 29°56' E 121°60'0 0.2
2016-Aug-22 07:30N 29°56' E 121°60'3 3.6
2016-Aug-22 06:33N 29°55' E 122°03'8 8.1
2016-Aug-22 05:33N 29°52' E 122°12'1010.2
2016-Aug-22 04:33N 29°45' E 122°20'10 9.6
2016-Aug-22 03:33N 29°41' E 122°31'5 4.8
2016-Aug-22 02:34N 29°40' E 122°36'2 2.0
2016-Aug-22 01:32N 29°40' E 122°38'4 3.5
2016-Aug-22 00:28N 29°40' E 122°42'  

Dump ship's entire track history